Latest Weather Observations for Bairnsdale

IDV60801

Issued at 4:31 am EST Sunday 30 August 2015 (issued every 30 minutes, with the page automatically refreshed every 10 minutes)

About weather observations | Map of weather stations | Latest weather observations for VIC | Other Formats
Station Details ID: 085279 Name: BAIRNSDALE AIRPORT Lat: -37.88 Lon: 147.57 Height: 49.4 m
Data from the previous 72 hours. | See also: Recent months at Bairnsdale
Date/Time
EST
Temp
°C
App
Temp
°C
Dew
Point
Rel
Hum
%
Delta-T
°C
Wind Press
QNH
hPa
Press
MSL
hPa
Rain
since 9 am
mm
Dir
 
Spd
km/h
Gust
km/h
Spd
kts
Gust
kts
30/04:30am 7.1 4.0 7.1 100 0.0 W 13 17 7 9 1022.4 1022.5 1.2
30/04:00am 7.7 4.7 7.7 100 0.0 W 13 19 7 10 1022.3 1022.4 1.2
30/03:30am 7.7 4.7 7.6 99 0.0 W 13 19 7 10 1022.2 1022.3 1.2
30/03:00am 7.9 4.1 7.6 98 0.1 W 17 22 9 12 1022.3 1022.4 1.2
30/02:38am 8.0 3.9 7.7 98 0.1 WSW 19 24 10 13 1022.5 1022.6 1.0
30/02:30am 8.0 4.2 7.6 97 0.2 SW 17 22 9 12 1022.6 1022.7 0.8
30/02:24am 8.1 4.2 7.3 95 0.4 SW 17 22 9 12 1022.7 1022.8 0.8
30/02:00am 8.2 3.7 6.8 91 0.6 W 20 28 11 15 1022.5 1022.6 0.4
30/01:30am 8.0 3.4 6.5 90 0.7 W 20 26 11 14 1022.7 1022.8 0.4
30/01:00am 8.4 3.9 6.9 90 0.7 W 20 28 11 15 1022.8 1022.9 0.4
30/12:30am 8.5 4.2 7.0 90 0.7 W 19 26 10 14 1023.1 1023.2 0.4
30/12:00am 8.5 4.0 6.8 89 0.8 W 20 28 11 15 1023.0 1023.1 0.4
 
Date/Time
EST
Temp
°C
App
Temp
°C
Dew
Point
Rel
Hum
%
Delta-T
°C
Wind Press
QNH
hPa
Press
MSL
hPa
Rain
since 9 am
mm
Dir
 
Spd
km/h
Gust
km/h
Spd
kts
Gust
kts
29/11:30pm 8.1 3.7 6.7 91 0.6 W 19 26 10 14 1023.0 1023.1 0.4
29/11:00pm 7.9 3.5 6.7 92 0.6 W 19 26 10 14 1023.2 1023.3 0.4
29/10:30pm 8.0 3.6 6.6 91 0.6 W 19 26 10 14 1023.3 1023.4 0.4
29/10:00pm 8.1 3.7 6.7 91 0.6 W 19 24 10 13 1023.3 1023.4 0.4
29/09:30pm 8.5 4.0 6.8 89 0.8 W 20 26 11 14 1023.3 1023.4 0.4
29/09:00pm 8.8 4.3 6.9 88 0.9 W 20 28 11 15 1023.1 1023.2 0.4
29/08:30pm 9.2 4.4 7.3 88 0.9 W 22 28 12 15 1022.9 1023.0 0.4
29/08:00pm 9.4 4.6 7.3 87 1.0 W 22 28 12 15 1022.8 1022.9 0.4
29/07:30pm 9.6 5.2 7.5 87 1.0 W 20 28 11 15 1022.8 1022.9 0.4
29/07:00pm 9.6 5.2 7.4 86 1.0 W 20 28 11 15 1022.6 1022.7 0.4
29/06:30pm 9.8 5.0 7.2 84 1.2 W 22 30 12 16 1022.1 1022.2 0.4
29/06:00pm 10.4 6.0 7.3 81 1.5 W 20 32 11 17 1021.7 1021.8 0.4
29/05:30pm 11.0 6.7 7.9 81 1.5 WSW 20 32 11 17 1021.6 1021.7 0.4
29/05:00pm 10.8 6.5 7.7 81 1.5 W 20 32 11 17 1021.3 1021.4 0.4
29/04:30pm 11.9 6.5 8.0 77 1.9 WSW 26 35 14 19 1021.1 1021.2 0.4
29/04:00pm 11.3 6.4 8.5 83 1.4 WSW 24 35 13 19 1021.1 1021.2 0.4
29/03:30pm 10.9 6.3 8.3 84 1.3 W 22 28 12 15 1021.1 1021.2 0.4
29/03:00pm 11.6 5.5 8.1 79 1.7 WSW 30 43 16 23 1021.0 1021.1 0.2
29/02:30pm 11.5 5.1 6.8 73 2.2 W 30 43 16 23 1020.9 1021.0 0.2
29/02:00pm 11.4 5.0 6.9 74 2.1 W 30 41 16 22 1021.1 1021.2 0.2
29/01:41pm 11.1 4.2 6.6 74 2.1 W 32 50 17 27 1021.2 1021.3 0.2
29/01:30pm 11.0 3.6 6.6 74 2.1 WSW 35 52 19 28 1021.2 1021.3 0.2
29/01:00pm 10.6 3.7 6.4 75 2.0 W 32 54 17 29 1021.5 1021.6 0.2
29/12:31pm 10.6 3.5 6.2 74 2.1 W 33 56 18 30 1021.7 1021.8 0.2
29/12:30pm 10.5 3.3 6.1 74 2.0 W 33 48 18 26 1021.7 1021.8 0.2
29/12:00pm 10.2 2.2 5.6 73 2.1 W 37 52 20 28 1022.1 1022.2 0.2
29/11:37am 10.6 3.1 6.2 74 2.1 W 35 54 19 29 1022.3 1022.4 0.2
29/11:30am 10.4 2.0 5.4 71 2.3 W 39 56 21 30 1022.4 1022.5 0.2
29/11:15am 10.0 2.9 5.4 73 2.1 WSW 32 50 17 27 1022.5 1022.6 0.2
29/11:00am 10.0 3.6 5.0 71 2.2 W 28 43 15 23 1022.6 1022.7 0.2
29/10:42am 9.9 3.1 5.1 72 2.2 W 30 48 16 26 1022.6 1022.7 0.2
29/10:30am 9.5 2.1 4.1 69 2.4 W 32 46 17 25 1022.5 1022.6 0.2
29/10:00am 9.2 1.2 3.8 69 2.3 W 35 52 19 28 1022.5 1022.6 0.0
29/09:51am 9.4 1.7 3.4 66 2.6 W 33 52 18 28 1022.6 1022.7 0.0
29/09:30am 9.2 1.2 3.6 68 2.4 WNW 35 52 19 28 1022.6 1022.7 0.0
29/09:07am 8.4 0.8 3.1 69 2.3 W 32 50 17 27 1022.9 1023.0 0.0
29/09:00am 8.2 0.7 3.3 71 2.1 WNW 32 46 17 25 1022.8 1022.9 11.6
29/08:54am 8.0 1.2 3.3 72 2.0 WNW 28 46 15 25 1022.9 1023.0 11.6
29/08:30am 7.3 0.4 2.8 73 1.9 WNW 28 39 15 21 1023.2 1023.3 11.6
29/08:00am 6.4 0.3 3.0 79 1.4 WNW 24 33 13 18 1023.3 1023.4 11.6
29/07:30am 5.4 -0.4 2.4 81 1.2 WNW 22 32 12 17 1023.2 1023.3 11.6
29/07:00am 4.8 -1.0 2.3 84 1.0 WNW 22 35 12 19 1023.2 1023.3 11.6
29/06:30am 4.7 -0.7 2.6 86 0.9 WNW 20 26 11 14 1023.3 1023.4 11.6
29/06:00am 4.6 -0.7 2.9 89 0.7 WNW 20 30 11 16 1023.2 1023.3 11.6
29/05:30am 4.9 -0.4 3.2 89 0.7 W 20 26 11 14 1023.0 1023.1 11.6
29/05:00am 5.3 -0.6 3.8 90 0.6 W 24 33 13 18 1023.0 1023.1 11.6
29/04:30am 5.7 0.2 4.2 90 0.6 W 22 28 12 15 1023.1 1023.2 11.6
29/04:00am 5.5 0.3 3.7 88 0.8 W 20 30 11 16 1023.2 1023.3 11.6
29/03:30am 5.8 0.3 4.1 89 0.7 W 22 32 12 17 1023.0 1023.1 11.6
29/03:00am 5.8 1.0 4.6 92 0.5 W 19 24 10 13 1023.3 1023.4 11.6
29/02:30am 6.0 1.3 5.3 95 0.3 W 19 24 10 13 1023.6 1023.7 11.6
29/02:00am 6.2 1.4 5.6 96 0.3 W 20 28 11 15 1023.7 1023.8 11.6
29/01:30am 6.1 1.4 5.1 93 0.4 W 19 24 10 13 1024.0 1024.1 11.6
29/01:00am 6.5 2.7 5.8 95 0.3 W 15 19 8 10 1024.1 1024.2 11.6
29/12:30am 7.4 3.9 7.4 100 0.0 WNW 15 20 8 11 1023.9 1024.0 11.6
29/12:00am 7.4 4.7 7.4 100 0.0 WNW 11 15 6 8 1024.0 1024.1 11.6
 
Date/Time
EST
Temp
°C
App
Temp
°C
Dew
Point
Rel
Hum
%
Delta-T
°C
Wind Press
QNH
hPa
Press
MSL
hPa
Rain
since 9 am
mm
Dir
 
Spd
km/h
Gust
km/h
Spd
kts
Gust
kts
28/11:30pm 7.5 4.5 7.5 100 0.0 WSW 13 15 7 8 1024.1 1024.2 11.6
28/11:00pm 7.3 5.0 7.3 100 0.0 WSW 9 13 5 7 1024.2 1024.3 11.6
28/10:42pm 7.5 5.2 7.5 100 0.0 SW 9 11 5 6 1024.3 1024.4 11.2
28/10:30pm 7.7 5.1 7.7 100 0.0 SSW 11 13 6 7 1024.3 1024.4 11.2
28/10:24pm 7.7 5.1 7.7 100 0.0 SW 11 13 6 7 1024.4 1024.5 11.0
28/10:00pm 7.2 5.4 7.2 100 0.0 NNW 6 6 3 3 1024.5 1024.6 10.4
28/09:43pm 7.6 6.3 7.6 100 0.0 N 4 9 2 5 1024.5 1024.6 10.4
28/09:30pm 7.8 5.2 7.8 100 0.0 NW 11 15 6 8 1024.6 1024.7 10.4
28/09:17pm 7.8 7.3 7.8 100 0.0 CALM 0 0 0 0 1024.6 1024.7 9.8
28/09:00pm 8.1 6.3 8.1 100 0.0 SSW 7 13 4 7 1024.3 1024.4 9.8
28/08:55pm 8.3 6.2 8.3 100 0.0 SSE 9 13 5 7 1024.5 1024.6 8.0
28/08:30pm 8.6 7.5 8.6 100 0.0 WSW 4 6 2 3 1024.3 1024.4 7.2
28/08:00pm 8.7 7.3 8.7 100 0.0 W 6 7 3 4 1024.2 1024.3 7.2
28/07:30pm 8.5 7.4 8.5 100 0.0 NW 4 7 2 4 1024.1 1024.2 7.0
28/07:00pm 8.8 8.2 8.8 100 0.0 NW 2 6 1 3 1023.8 1023.9 6.8
28/06:30pm 8.6 7.1 8.6 100 0.0 W 6 7 3 4 1023.8 1023.9 6.6
28/06:00pm 8.8 7.4 8.8 100 0.0 WSW 6 6 3 3 1023.4 1023.5 6.6
28/05:30pm 9.0 7.6 9.0 100 0.0 SW 6 9 3 5 1023.4 1023.5 6.6
28/05:00pm 9.2 7.0 9.2 100 0.0 WSW 11 13 6 7 1023.4 1023.5 6.0
28/04:30pm 9.3 7.5 9.3 100 0.0 S 9 13 5 7 1023.0 1023.1 6.0
28/04:02pm 9.2 7.3 9.2 100 0.0 SSW 9 13 5 7 1022.9 1023.0 6.0
28/04:00pm 9.1 7.2 9.1 100 0.0 SSW 9 13 5 7 1022.9 1023.0 6.0
28/03:34pm 9.3 5.9 9.3 100 0.0 S 17 20 9 11 1023.1 1023.2 4.6
28/03:30pm 9.4 6.1 9.4 100 0.0 S 17 20 9 11 1023.0 1023.1 4.4
28/03:09pm 9.5 6.6 9.5 100 0.0 S 15 19 8 10 1022.9 1023.0 4.0
28/03:00pm 9.7 6.4 9.6 99 0.0 S 17 22 9 12 1022.8 1022.9 3.6
28/02:54pm 9.9 6.9 9.3 96 0.3 S 15 22 8 12 1022.8 1022.9 3.4
28/02:30pm 10.3 7.4 9.5 95 0.4 SSW 15 19 8 10 1022.7 1022.8 3.4
28/02:29pm 10.5 7.6 9.7 95 0.4 SSW 15 19 8 10 1022.7 1022.8 3.4
28/02:00pm 10.3 7.6 10.3 100 0.0 SW 15 20 8 11 1022.6 1022.7 3.2
28/01:49pm 10.4 7.7 10.4 100 0.0 SW 15 17 8 9 1022.6 1022.7 3.2
28/01:30pm 10.0 7.6 10.0 100 0.0 SW 13 19 7 10 1022.7 1022.8 2.6
28/01:04pm 10.0 8.0 10.0 100 0.0 WSW 11 15 6 8 1023.0 1023.1 1.8
28/01:03pm 9.9 7.8 9.9 100 0.0 WSW 11 17 6 9 1023.0 1023.1 1.8
28/01:00pm 9.9 7.5 9.9 100 0.0 WSW 13 17 7 9 1023.0 1023.1 1.8
28/12:56pm 9.9 7.1 9.9 100 0.0 WSW 15 19 8 10 1023.0 1023.1 1.6
28/12:54pm 9.8 6.9 9.8 100 0.0 WSW 15 19 8 10 1023.1 1023.2 1.6
28/12:30pm 9.8 6.9 9.8 100 0.0 WSW 15 19 8 10 1023.2 1023.3 1.4
28/12:00pm 10.0 6.4 10.0 100 0.0 WSW 19 22 10 12 1023.5 1023.6 1.2
28/11:30am 9.9 7.0 9.8 99 0.1 WSW 15 19 8 10 1023.8 1023.9 0.4
28/11:23am 9.9 7.0 9.6 98 0.2 WSW 15 19 8 10 1023.8 1023.9 0.4
28/11:08am 10.3 6.3 8.9 91 0.7 WSW 20 26 11 14 1023.8 1023.9 0.0
28/11:00am 10.5 5.9 8.1 85 1.2 WSW 22 28 12 15 1023.8 1023.9 0.0
28/10:30am 10.5 5.3 7.2 80 1.6 WSW 24 32 13 17 1023.6 1023.7 0.0
28/10:00am 10.8 5.6 7.1 78 1.8 WSW 24 35 13 19 1023.4 1023.5 0.0
28/09:30am 10.1 4.5 7.0 81 1.5 WSW 26 33 14 18 1023.2 1023.3 0.0
28/09:00am 9.9 4.6 7.0 82 1.4 WSW 24 32 13 17 1023.2 1023.3 19.4
28/08:30am 9.5 4.2 6.8 83 1.3 W 24 37 13 20 1023.2 1023.3 19.4
28/08:00am 9.2 3.8 6.5 83 1.2 WSW 24 33 13 18 1022.9 1023.0 19.4
28/07:30am 9.0 3.3 6.6 85 1.1 W 26 39 14 21 1022.7 1022.8 19.4
28/07:00am 9.0 3.7 7.0 87 0.9 W 24 35 13 19 1022.3 1022.4 19.4
28/06:30am 9.1 3.6 7.5 90 0.8 W 26 39 14 21 1022.1 1022.2 19.4
28/06:00am 9.3 3.4 7.7 90 0.8 WSW 28 35 15 19 1021.6 1021.7 19.4
28/05:30am 9.3 3.9 8.2 93 0.5 WSW 26 35 14 19 1021.2 1021.3 19.4
28/05:00am 9.6 4.4 9.0 96 0.3 W 26 35 14 19 1020.9 1021.0 19.4
28/04:30am 9.6 4.5 9.1 97 0.2 WSW 26 35 14 19 1020.5 1020.6 19.4
28/04:00am 9.7 5.1 9.6 99 0.0 WSW 24 35 13 19 1020.4 1020.5 19.4
28/03:47am 9.7 5.1 9.7 100 0.0 WSW 24 33 13 18 1020.2 1020.3 19.4
28/03:32am 9.6 5.0 9.6 100 0.0 WSW 24 33 13 18 1020.1 1020.2 19.4
28/03:30am 9.6 5.0 9.6 100 0.0 WSW 24 33 13 18 1020.1 1020.2 19.4
28/03:00am 9.6 5.0 9.6 100 0.0 WSW 24 30 13 16 1020.0 1020.1 19.2
28/02:30am 9.6 5.4 9.6 100 0.0 WSW 22 30 12 16 1020.0 1020.1 19.2
28/02:12am 9.7 5.1 9.7 100 0.0 WSW 24 35 13 19 1020.1 1020.2 19.2
28/02:00am 9.7 5.1 9.7 100 0.0 WSW 24 32 13 17 1020.0 1020.1 19.2
28/01:53am 9.6 5.0 9.6 100 0.0 WSW 24 32 13 17 1020.0 1020.1 19.2
28/01:32am 9.7 5.1 9.7 100 0.0 WSW 24 33 13 18 1020.1 1020.2 19.2
28/01:30am 9.6 5.0 9.6 100 0.0 WSW 24 33 13 18 1020.0 1020.1 19.2
28/01:27am 9.7 5.1 9.7 100 0.0 WSW 24 33 13 18 1020.1 1020.2 19.2
28/01:00am 10.0 5.5 10.0 100 0.0 SW 24 32 13 17 1019.9 1020.0 19.0
28/12:56am 10.0 5.1 10.0 100 0.0 SW 26 35 14 19 1019.9 1020.0 19.0
28/12:43am 10.1 5.2 10.1 100 0.0 SW 26 37 14 20 1019.8 1019.9 19.0
28/12:30am 10.2 5.4 10.2 100 0.0 SW 26 35 14 19 1019.7 1019.8 19.0
28/12:23am 10.3 5.1 10.3 100 0.0 SW 28 35 15 19 1019.6 1019.7 19.0
28/12:00am 10.6 5.5 10.6 100 0.0 SW 28 39 15 21 1019.5 1019.6 18.6
 
Date/Time
EST
Temp
°C
App
Temp
°C
Dew
Point
Rel
Hum
%
Delta-T
°C
Wind Press
QNH
hPa
Press
MSL
hPa
Rain
since 9 am
mm
Dir
 
Spd
km/h
Gust
km/h
Spd
kts
Gust
kts
27/11:30pm 10.5 6.1 10.5 100 0.0 SSW 24 33 13 18 1019.5 1019.6 18.6
27/11:00pm 10.1 7.7 10.1 100 0.0 W 13 17 7 9 1019.7 1019.8 18.0
27/10:37pm 9.7 7.2 9.7 100 0.0 W 13 15 7 8 1019.7 1019.8 17.8
27/10:30pm 9.6 7.5 9.6 100 0.0 WNW 11 13 6 7 1019.7 1019.8 17.6
27/10:29pm 9.6 7.5 9.6 100 0.0 WNW 11 15 6 8 1019.7 1019.8 17.4
27/10:16pm 9.6 7.5 9.6 100 0.0 WNW 11 13 6 7 1019.7 1019.8 17.0
27/10:00pm 9.5 7.3 9.5 100 0.0 WNW 11 13 6 7 1019.7 1019.8 16.2
27/09:36pm 9.6 7.8 9.6 100 0.0 W 9 11 5 6 1019.8 1019.9 16.0
27/09:30pm 9.5 7.7 9.5 100 0.0 W 9 11 5 6 1019.8 1019.9 15.8
27/09:07pm 9.5 7.7 9.5 100 0.0 WNW 9 11 5 6 1019.8 1019.9 15.4
27/09:00pm 9.5 7.3 9.5 100 0.0 WNW 11 13 6 7 1019.7 1019.8 15.4
27/08:30pm 9.5 6.9 9.5 100 0.0 W 13 19 7 10 1019.5 1019.6 15.4
27/08:00pm 9.5 6.2 9.5 100 0.0 W 17 22 9 12 1019.2 1019.3 15.4
27/07:30pm 9.6 6.3 9.5 99 0.0 W 17 22 9 12 1019.1 1019.2 15.4
27/07:00pm 9.5 6.1 9.2 98 0.1 W 17 24 9 13 1018.8 1018.9 15.4
27/06:30pm 9.6 6.2 9.3 98 0.1 W 17 24 9 13 1018.5 1018.6 15.4
27/06:00pm 9.7 6.7 9.2 97 0.2 WSW 15 24 8 13 1018.3 1018.4 15.4
27/05:30pm 9.7 6.2 8.8 94 0.4 WSW 17 22 9 12 1018.1 1018.2 15.4
27/05:24pm 9.7 5.8 8.8 94 0.4 WSW 19 28 10 15 1018.1 1018.2 15.4
27/05:00pm 10.1 6.6 8.9 92 0.6 WSW 17 22 9 12 1018.0 1018.1 15.4
27/04:30pm 10.6 8.0 9.2 91 0.7 WSW 13 17 7 9 1017.8 1017.9 15.4
27/04:14pm 10.6 7.9 9.0 90 0.8 WSW 13 20 7 11 1017.8 1017.9 15.4
27/04:00pm 10.7 8.0 9.1 90 0.8 WSW 13 17 7 9 1017.8 1017.9 15.4
27/03:30pm 10.7 6.8 8.6 87 1.0 W 19 28 10 15 1017.6 1017.7 15.4
27/03:00pm 11.0 7.6 9.3 89 0.8 W 17 24 9 13 1017.6 1017.7 15.4
27/02:30pm 10.3 6.2 8.7 90 0.8 W 20 26 11 14 1017.2 1017.3 15.4
27/02:00pm 10.1 5.2 8.4 89 0.8 W 24 33 13 18 1017.3 1017.4 15.4
27/01:30pm 9.8 5.4 9.0 95 0.4 W 22 32 12 17 1017.8 1017.9 15.4
27/01:00pm 9.8 5.6 9.8 100 0.0 WSW 22 32 12 17 1018.0 1018.1 15.4
27/12:30pm 10.2 6.7 10.2 100 0.0 WSW 19 28 10 15 1018.2 1018.3 15.4
27/12:18pm 10.2 6.7 10.2 100 0.0 WSW 19 26 10 14 1018.2 1018.3 15.2
27/12:00pm 10.2 7.1 10.2 100 0.0 W 17 22 9 12 1018.7 1018.8 14.0
27/11:30am 10.1 7.7 10.1 100 0.0 WNW 13 17 7 9 1019.6 1019.7 10.0
27/11:24am 10.1 7.7 10.1 100 0.0 WNW 13 17 7 9 1019.6 1019.7 9.2
27/11:20am 10.1 7.7 10.1 100 0.0 WNW 13 19 7 10 1019.6 1019.7 8.6
27/11:00am 10.0 7.6 10.0 100 0.0 NW 13 19 7 10 1019.5 1019.6 7.2
27/10:53am 10.0 7.6 10.0 100 0.0 NW 13 19 7 10 1019.5 1019.6 6.8
27/10:40am 10.0 7.6 10.0 100 0.0 NW 13 17 7 9 1019.5 1019.6 6.0
27/10:30am 9.9 7.5 9.9 100 0.0 NW 13 17 7 9 1019.5 1019.6 5.6
27/10:23am 9.8 7.3 9.8 100 0.0 NW 13 17 7 9 1019.5 1019.6 5.2
27/10:19am 9.8 7.7 9.8 100 0.0 NW 11 15 6 8 1019.5 1019.6 4.6
27/10:09am 9.7 7.6 9.7 100 0.0 NW 11 17 6 9 1019.6 1019.7 4.4
27/10:04am 9.7 7.2 9.7 100 0.0 NW 13 17 7 9 1019.6 1019.7 4.2
27/10:01am 9.6 7.1 9.6 100 0.0 NW 13 17 7 9 1019.6 1019.7 4.2
27/10:00am 9.6 7.1 9.6 100 0.0 NW 13 17 7 9 1019.6 1019.7 4.2
27/09:30am 9.6 7.1 9.6 100 0.0 NNW 13 15 7 8 1020.0 1020.1 2.4
27/09:25am 9.6 7.5 9.6 100 0.0 NW 11 15 6 8 1020.1 1020.2 2.0
27/09:21am 9.6 7.5 9.6 100 0.0 NW 11 13 6 7 1020.1 1020.2 1.8
27/09:00am 9.5 7.7 9.5 100 0.0 NW 9 11 5 6 1020.2 1020.3 2.4
27/08:54am 9.5 7.7 9.5 100 0.0 NW 9 11 5 6 1020.2 1020.3 2.2
27/08:30am 9.5 7.7 9.5 100 0.0 NW 9 11 5 6 1020.3 1020.4 2.0
27/08:21am 9.4 7.6 9.4 100 0.0 NW 9 11 5 6 1020.3 1020.4 2.0
27/08:00am 9.4 8.9 9.4 100 0.0 WSW 2 6 1 3 1020.3 1020.4 2.0
27/07:30am 9.1 7.8 9.1 100 0.0 WSW 6 7 3 4 1020.0 1020.1 2.0
27/07:19am 9.1 7.8 9.1 100 0.0 WSW 6 7 3 4 1020.0 1020.1 2.0
27/07:14am 9.0 7.6 9.0 100 0.0 W 6 7 3 4 1020.0 1020.1 2.0
27/07:00am 9.2 7.7 9.2 100 0.0 NW 7 9 4 5 1020.1 1020.2 2.0
27/06:30am 9.1 7.6 9.1 100 0.0 WNW 7 11 4 6 1020.0 1020.1 2.0
27/06:00am 9.1 7.8 9.1 100 0.0 WNW 6 9 3 5 1019.9 1020.0 2.0
27/05:30am 9.0 7.1 9.0 100 0.0 WNW 9 11 5 6 1020.0 1020.1 2.0
27/05:00am 8.9 7.0 8.9 100 0.0 NW 9 11 5 6 1020.1 1020.2 2.0

Other Formats:

Comma delimited format used in spreadsheet applications
http://www.bom.gov.au/fwo/IDV60801/IDV60801.94912.axf

JavaScript Object Notation format (JSON) in row-major order
http://www.bom.gov.au/fwo/IDV60801/IDV60801.94912.json